createdAt,value
2023-05-11T00:00:23.344Z,52.61
2023-05-11T00:02:49.751Z,52.80
2023-05-11T00:05:16.276Z,53.35
2023-05-11T00:07:42.625Z,53.17
2023-05-11T00:10:09.243Z,53.40
2023-05-11T00:12:35.854Z,53.21
2023-05-11T00:15:02.444Z,52.85
2023-05-11T00:17:28.829Z,53.27
2023-05-11T00:19:55.441Z,52.84
2023-05-11T00:22:21.766Z,52.94
2023-05-11T00:24:48.216Z,53.27
2023-05-11T00:27:14.615Z,53.21
2023-05-11T00:29:40.935Z,53.23
2023-05-11T00:32:07.354Z,53.18
2023-05-11T00:34:33.706Z,52.97
2023-05-11T00:37:00.146Z,53.79
2023-05-11T00:39:26.530Z,54.04
2023-05-11T00:41:53.043Z,54.50
2023-05-11T00:44:19.387Z,54.39
2023-05-11T00:46:45.813Z,54.86
2023-05-11T00:49:12.329Z,55.32
2023-05-11T00:51:38.706Z,55.60
2023-05-11T00:54:05.264Z,55.71
2023-05-11T00:56:31.626Z,55.98
2023-05-11T00:58:58.422Z,56.23
2023-05-11T01:01:24.909Z,55.93
2023-05-11T01:03:51.369Z,55.14
2023-05-11T01:06:28.093Z,55.14
2023-05-11T01:08:54.409Z,54.94
2023-05-11T01:11:26.277Z,55.43
2023-05-11T01:13:57.566Z,56.52
2023-05-11T01:16:24.669Z,56.18
2023-05-11T01:19:09.636Z,56.90
2023-05-11T01:21:36.009Z,55.96
2023-05-11T01:24:25.664Z,56.14
2023-05-11T01:26:58.088Z,57.41
2023-05-11T01:29:43.298Z,56.58
2023-05-11T01:32:19.752Z,57.89
2023-05-11T01:34:47.346Z,57.08
2023-05-11T01:37:19.748Z,57.50
2023-05-11T01:39:49.093Z,56.97
2023-05-11T01:42:15.484Z,57.57
2023-05-11T01:44:42.555Z,57.37
2023-05-11T01:47:09.033Z,57.42
2023-05-11T01:49:36.365Z,58.19
2023-05-11T01:52:02.888Z,58.69
2023-05-11T01:54:29.872Z,58.33
2023-05-11T01:56:56.380Z,57.98
2023-05-11T01:59:22.820Z,58.31
2023-05-11T02:01:49.282Z,58.23
2023-05-11T02:04:15.727Z,59.37
2023-05-11T02:06:42.121Z,59.40
2023-05-11T02:09:08.598Z,58.71
2023-05-11T02:11:35.288Z,59.35
2023-05-11T02:14:01.884Z,59.96
2023-05-11T02:16:28.429Z,59.51
2023-05-11T02:18:54.906Z,59.29
2023-05-11T02:21:21.300Z,58.66
2023-05-11T02:23:48.052Z,59.48
2023-05-11T02:26:14.896Z,58.88
2023-05-11T02:28:41.248Z,59.58
2023-05-11T02:31:09.986Z,60.06
2023-05-11T02:33:36.530Z,59.48
2023-05-11T02:36:03.110Z,59.58
2023-05-11T02:38:32.845Z,59.91
2023-05-11T02:41:00.903Z,60.13
2023-05-11T02:43:29.382Z,59.78
2023-05-11T02:46:02.440Z,59.64
2023-05-11T02:48:29.254Z,58.29
2023-05-11T02:50:56.260Z,58.01
2023-05-11T02:53:23.212Z,59.51
2023-05-11T02:55:50.467Z,59.80
2023-05-11T02:58:16.973Z,59.97
2023-05-11T03:00:43.513Z,59.72
2023-05-11T03:03:10.019Z,60.46
2023-05-11T03:05:36.491Z,60.12
2023-05-11T03:08:02.955Z,60.28
2023-05-11T03:10:29.490Z,59.55
2023-05-11T03:12:56.039Z,60.09
2023-05-11T03:15:22.567Z,59.74
2023-05-11T03:17:51.971Z,60.45
2023-05-11T03:20:18.712Z,60.48
2023-05-11T03:22:45.294Z,61.23
2023-05-11T03:25:11.651Z,60.88
2023-05-11T03:27:38.598Z,60.85
2023-05-11T03:30:05.552Z,60.91
2023-05-11T03:32:31.919Z,61.31
2023-05-11T03:34:58.255Z,61.09
2023-05-11T03:37:24.642Z,61.50
2023-05-11T03:39:53.104Z,61.00
2023-05-11T03:42:19.455Z,60.85
2023-05-11T03:44:47.326Z,60.55
2023-05-11T03:47:13.650Z,60.42
2023-05-11T03:49:39.989Z,60.01
2023-05-11T03:52:06.353Z,59.81
2023-05-11T03:54:32.720Z,59.47
2023-05-11T03:56:59.066Z,59.96
2023-05-11T03:59:25.503Z,60.14
2023-05-11T04:01:53.110Z,59.79
2023-05-11T04:04:19.869Z,60.15
2023-05-11T04:06:46.220Z,59.81
2023-05-11T04:09:12.533Z,59.76
2023-05-11T04:11:39.105Z,59.51
2023-05-11T04:14:05.675Z,60.40
2023-05-11T04:16:32.078Z,60.36
2023-05-11T04:18:58.521Z,59.82
2023-05-11T04:21:25.456Z,59.00
2023-05-11T04:23:51.794Z,57.88
2023-05-11T04:26:18.221Z,58.01
2023-05-11T04:28:44.603Z,57.58
2023-05-11T04:31:11.011Z,58.05
2023-05-11T04:33:37.400Z,57.01
2023-05-11T04:36:03.922Z,56.45
2023-05-11T04:38:30.867Z,56.54
2023-05-11T04:40:57.199Z,56.01
2023-05-11T04:43:23.627Z,55.17
2023-05-11T04:45:50.257Z,54.93
2023-05-11T04:48:19.608Z,54.85
2023-05-11T04:50:47.041Z,54.35
2023-05-11T04:53:13.466Z,53.81
2023-05-11T04:55:39.988Z,53.58
2023-05-11T04:58:06.463Z,53.52
2023-05-11T05:00:33.000Z,52.67
2023-05-11T05:02:59.380Z,52.95
2023-05-11T05:05:26.138Z,53.09
2023-05-11T05:07:52.544Z,52.41
2023-05-11T05:10:19.027Z,52.38
2023-05-11T05:12:45.552Z,52.35
2023-05-11T05:15:12.220Z,51.38
2023-05-11T05:17:38.698Z,51.41
2023-05-11T05:20:05.553Z,51.10
2023-05-11T05:22:31.986Z,49.62
2023-05-11T05:24:58.431Z,49.88
2023-05-11T05:27:24.826Z,50.01
2023-05-11T05:29:51.193Z,50.02
2023-05-11T05:32:17.545Z,49.86
2023-05-11T05:34:44.066Z,49.20
2023-05-11T05:37:10.544Z,49.46
2023-05-11T05:39:36.943Z,48.61
2023-05-11T05:42:03.402Z,48.11
2023-05-11T05:44:32.020Z,48.01
2023-05-11T05:46:58.559Z,47.94
2023-05-11T05:49:25.024Z,48.09
2023-05-11T05:51:52.124Z,47.85
2023-05-11T05:54:18.502Z,47.42
2023-05-11T05:56:45.129Z,46.84
2023-05-11T05:59:13.234Z,46.53
2023-05-11T06:01:45.469Z,47.19
2023-05-11T06:04:15.129Z,46.10
2023-05-11T06:06:41.690Z,44.82
2023-05-11T06:09:08.090Z,44.47
2023-05-11T06:11:34.419Z,44.83
2023-05-11T06:14:00.919Z,44.93
2023-05-11T06:16:28.233Z,44.30
2023-05-11T06:18:54.741Z,44.35
2023-05-11T06:21:21.237Z,44.02
2023-05-11T06:23:47.653Z,44.20
2023-05-11T06:26:14.006Z,42.95
2023-05-11T06:28:40.323Z,43.48
2023-05-11T06:31:06.705Z,43.06
2023-05-11T06:33:33.150Z,41.95
2023-05-11T06:36:04.961Z,42.57
2023-05-11T06:38:31.584Z,42.43
2023-05-11T06:40:57.912Z,42.31
2023-05-11T06:43:24.554Z,42.57
2023-05-11T06:45:51.020Z,41.36
2023-05-11T06:48:17.411Z,42.22
2023-05-11T06:50:43.748Z,41.46
2023-05-11T06:53:10.721Z,41.85
2023-05-11T06:55:37.918Z,41.56
2023-05-11T06:58:04.376Z,40.26
2023-05-11T07:00:30.832Z,40.41
2023-05-11T07:02:57.348Z,39.43
2023-05-11T07:05:23.837Z,39.43
2023-05-11T07:07:50.197Z,39.09
2023-05-11T07:10:16.911Z,38.89
2023-05-11T07:12:43.542Z,39.90
2023-05-11T07:15:10.126Z,39.67
2023-05-11T07:17:36.504Z,39.04
2023-05-11T07:20:02.928Z,38.19
2023-05-11T07:22:29.335Z,38.75
2023-05-11T07:24:55.657Z,36.69
2023-05-11T07:27:22.016Z,38.07
2023-05-11T07:29:48.438Z,37.61
2023-05-11T07:32:14.870Z,36.59
2023-05-11T07:34:41.596Z,36.54
2023-05-11T07:37:08.371Z,37.60
2023-05-11T07:39:34.954Z,35.89
2023-05-11T07:42:01.415Z,34.99
2023-05-11T07:44:27.789Z,34.64
2023-05-11T07:46:54.999Z,34.50
2023-05-11T07:49:28.202Z,34.07
2023-05-11T07:52:06.184Z,34.53
2023-05-11T07:54:32.822Z,33.13
2023-05-11T07:56:59.305Z,32.49
2023-05-11T07:59:25.689Z,33.08
2023-05-11T08:01:52.029Z,32.89
2023-05-11T08:04:18.523Z,32.80
2023-05-11T08:06:44.962Z,33.18
2023-05-11T08:09:11.319Z,31.71
2023-05-11T08:11:37.665Z,32.51
2023-05-11T08:14:04.063Z,31.08
2023-05-11T08:16:30.417Z,31.40
2023-05-11T08:18:57.018Z,30.81
2023-05-11T08:21:24.117Z,30.53
2023-05-11T08:23:50.463Z,30.37
2023-05-11T08:26:16.774Z,30.65
2023-05-11T08:28:43.187Z,29.90
2023-05-11T08:31:10.265Z,29.80
2023-05-11T08:33:38.843Z,30.32
2023-05-11T08:36:06.196Z,30.97
2023-05-11T08:38:33.319Z,30.38
2023-05-11T08:40:59.814Z,31.24
2023-05-11T08:43:26.174Z,29.71
2023-05-11T08:45:53.598Z,29.63
2023-05-11T08:48:22.696Z,29.71
2023-05-11T08:50:49.136Z,29.63
2023-05-11T08:53:15.449Z,27.28
2023-05-11T08:55:42.369Z,29.06
2023-05-11T08:58:08.842Z,26.88
2023-05-11T09:00:35.353Z,27.55
2023-05-11T09:03:02.448Z,27.42
2023-05-11T09:05:28.931Z,28.44
2023-05-11T09:07:57.296Z,26.07
2023-05-11T09:10:23.697Z,26.86
2023-05-11T09:12:50.055Z,26.72
2023-05-11T09:15:16.399Z,25.51
2023-05-11T09:17:42.757Z,26.51
2023-05-11T09:20:09.499Z,26.68
2023-05-11T09:22:45.847Z,26.41
2023-05-11T09:25:13.564Z,25.21
2023-05-11T09:27:43.579Z,25.87
2023-05-11T09:30:13.736Z,25.47
2023-05-11T09:32:49.945Z,26.14
2023-05-11T09:35:34.858Z,26.41
2023-05-11T09:38:02.850Z,27.00
2023-05-11T09:40:34.127Z,26.44
2023-05-11T09:43:01.448Z,25.25
2023-05-11T09:45:36.992Z,25.82
2023-05-11T09:48:04.095Z,25.28
2023-05-11T09:50:34.269Z,26.07
2023-05-11T09:53:00.756Z,25.90
2023-05-11T09:55:27.346Z,25.46
2023-05-11T09:57:55.375Z,24.94
2023-05-11T10:00:21.928Z,24.70
2023-05-11T10:03:01.749Z,25.14
2023-05-11T10:05:28.434Z,23.59
2023-05-11T10:07:59.060Z,24.94
2023-05-11T10:10:25.880Z,25.30
2023-05-11T10:12:52.328Z,25.63
2023-05-11T10:15:19.049Z,25.71
2023-05-11T10:17:45.829Z,25.23
2023-05-11T10:20:12.260Z,26.17
2023-05-11T10:22:38.633Z,25.00
2023-05-11T10:25:06.409Z,25.49
2023-05-11T10:27:32.935Z,25.15
2023-05-11T10:29:59.386Z,25.96
2023-05-11T10:32:25.731Z,25.24
2023-05-11T10:34:52.292Z,24.65
2023-05-11T10:37:18.735Z,24.77
2023-05-11T10:39:47.833Z,24.31
2023-05-11T10:42:16.709Z,25.05
2023-05-11T10:44:46.628Z,25.00
2023-05-11T10:47:23.246Z,24.88
2023-05-11T10:50:13.308Z,24.97
2023-05-11T10:52:44.060Z,24.49
2023-05-11T10:55:13.971Z,25.44
2023-05-11T10:57:47.887Z,25.99
2023-05-11T11:00:15.000Z,26.12
2023-05-11T11:02:42.120Z,24.63
2023-05-11T11:05:13.952Z,25.27
2023-05-11T11:07:59.720Z,25.94
2023-05-11T11:10:36.006Z,25.30
2023-05-11T11:13:03.683Z,24.64
2023-05-11T11:16:05.377Z,24.38
2023-05-11T11:18:35.707Z,24.82
2023-05-11T11:21:02.338Z,23.84
2023-05-11T11:23:44.005Z,23.34
2023-05-11T11:26:11.617Z,24.28
2023-05-11T11:29:04.486Z,24.49
2023-05-11T11:31:32.420Z,24.64
2023-05-11T11:34:01.006Z,24.32
2023-05-11T11:36:46.191Z,24.47
2023-05-11T11:39:12.535Z,23.76
2023-05-11T11:41:38.901Z,24.06
2023-05-11T11:44:05.309Z,24.16
2023-05-11T11:46:31.858Z,24.71
2023-05-11T11:49:08.300Z,25.26
2023-05-11T11:51:34.753Z,24.80
2023-05-11T11:54:01.214Z,24.96
2023-05-11T11:56:30.839Z,24.48
2023-05-11T11:58:58.429Z,24.18
2023-05-11T12:01:26.767Z,23.06
2023-05-11T12:04:11.219Z,23.77
2023-05-11T12:06:41.094Z,23.84
2023-05-11T12:09:07.781Z,24.21
2023-05-11T12:11:36.749Z,24.50
2023-05-11T12:14:03.330Z,24.83
2023-05-11T12:16:29.847Z,24.92
2023-05-11T12:18:59.282Z,24.03
2023-05-11T12:21:28.338Z,24.85
2023-05-11T12:23:55.204Z,24.59
2023-05-11T12:26:22.154Z,24.60
2023-05-11T12:28:51.452Z,25.28
2023-05-11T12:31:18.420Z,24.94
2023-05-11T12:33:51.806Z,23.95
2023-05-11T12:36:18.578Z,24.73
2023-05-11T12:38:45.427Z,24.18
2023-05-11T12:41:14.370Z,23.82
2023-05-11T12:43:40.691Z,23.69
2023-05-11T12:46:07.268Z,24.72
2023-05-11T12:48:34.030Z,24.52
2023-05-11T12:51:00.466Z,24.40
2023-05-11T12:53:27.182Z,24.29
2023-05-11T12:55:59.883Z,24.84
2023-05-11T12:58:44.385Z,23.89
2023-05-11T13:01:11.254Z,24.16
2023-05-11T13:03:38.354Z,24.51
2023-05-11T13:06:12.325Z,24.97
2023-05-11T13:08:44.404Z,24.20
2023-05-11T13:11:24.559Z,24.75
2023-05-11T13:13:54.221Z,25.36
2023-05-11T13:16:24.755Z,24.86
2023-05-11T13:19:01.177Z,24.69
2023-05-11T13:21:29.251Z,25.21
2023-05-11T13:23:55.882Z,24.98
2023-05-11T13:26:23.058Z,24.33
2023-05-11T13:29:01.926Z,24.25
2023-05-11T13:31:42.048Z,25.11
2023-05-11T13:34:08.421Z,23.94
2023-05-11T13:36:34.958Z,24.01
2023-05-11T13:39:02.541Z,24.69
2023-05-11T13:41:28.982Z,24.87
2023-05-11T13:43:55.304Z,25.20
2023-05-11T13:46:22.153Z,24.59
2023-05-11T13:48:48.640Z,24.45
2023-05-11T13:51:14.970Z,24.83
2023-05-11T13:53:41.353Z,24.78
2023-05-11T13:56:07.740Z,25.14
2023-05-11T13:58:34.061Z,24.81
2023-05-11T14:01:08.012Z,24.94
2023-05-11T14:03:35.071Z,25.01
2023-05-11T14:06:01.544Z,24.38
2023-05-11T14:08:27.966Z,24.61
2023-05-11T14:10:54.318Z,24.79
2023-05-11T14:13:20.739Z,24.96
2023-05-11T14:15:47.105Z,25.33
2023-05-11T14:18:13.598Z,25.41
2023-05-11T14:20:42.950Z,25.48
2023-05-11T14:23:09.279Z,25.95
2023-05-11T14:25:36.248Z,25.22
2023-05-11T14:28:02.701Z,25.72
2023-05-11T14:30:29.024Z,24.76
2023-05-11T14:32:56.964Z,24.93
2023-05-11T14:38:30.113Z,25.55
2023-05-11T14:40:56.550Z,25.08
2023-05-11T14:43:24.202Z,25.34
2023-05-11T14:45:50.576Z,24.64
2023-05-11T14:48:16.994Z,24.25
2023-05-11T14:50:43.340Z,24.86
2023-05-11T14:53:09.809Z,24.68
2023-05-11T14:55:36.937Z,25.20
2023-05-11T14:58:09.619Z,25.03
2023-05-11T15:00:40.078Z,26.03
2023-05-11T15:03:10.690Z,24.72
2023-05-11T15:05:37.739Z,24.25
2023-05-11T15:08:04.364Z,24.90
2023-05-11T15:10:30.792Z,24.25
2023-05-11T15:12:57.233Z,24.63
2023-05-11T15:15:23.784Z,24.94
2023-05-11T15:17:50.265Z,24.80
2023-05-11T15:20:17.317Z,25.05
2023-05-11T15:22:44.023Z,24.46
2023-05-11T15:25:10.578Z,25.18
2023-05-11T15:27:36.960Z,24.46
2023-05-11T15:30:03.927Z,24.89
2023-05-11T15:32:30.513Z,24.77
2023-05-11T15:34:59.650Z,24.96
2023-05-11T15:37:26.691Z,24.69
2023-05-11T15:39:53.030Z,25.34
2023-05-11T15:42:34.510Z,25.26
2023-05-11T15:45:00.929Z,25.14
2023-05-11T15:47:27.282Z,25.13
2023-05-11T15:49:53.735Z,24.78
2023-05-11T15:52:20.167Z,24.89
2023-05-11T15:54:46.540Z,24.84
2023-05-11T15:57:12.950Z,25.08
2023-05-11T15:59:39.293Z,25.12
2023-05-11T16:02:06.284Z,25.25
2023-05-11T16:04:32.752Z,25.70
2023-05-11T16:06:59.262Z,25.31
2023-05-11T16:09:25.664Z,25.53
2023-05-11T16:11:52.068Z,25.67
2023-05-11T16:14:18.389Z,26.11
2023-05-11T16:16:44.821Z,25.49
2023-05-11T16:19:11.376Z,25.86
2023-05-11T16:21:40.605Z,26.16
2023-05-11T16:24:07.901Z,25.59
2023-05-11T16:26:34.258Z,25.99
2023-05-11T16:29:00.702Z,25.99
2023-05-11T16:31:27.335Z,26.14
2023-05-11T16:33:53.802Z,26.04
2023-05-11T16:36:21.134Z,26.12
2023-05-11T16:38:49.735Z,26.48
2023-05-11T16:41:16.217Z,26.33
2023-05-11T16:43:42.912Z,26.22
2023-05-11T16:46:09.498Z,26.56
2023-05-11T16:48:35.972Z,26.42
2023-05-11T16:51:02.367Z,26.38
2023-05-11T16:53:28.845Z,26.42
2023-05-11T16:55:55.527Z,26.68
2023-05-11T16:58:22.649Z,26.70
2023-05-11T17:00:49.700Z,26.15
2023-05-11T17:03:17.016Z,25.93
2023-05-11T17:05:43.896Z,26.63
2023-05-11T17:08:10.527Z,26.58
2023-05-11T17:10:36.983Z,26.75
2023-05-11T17:13:03.329Z,26.57
2023-05-11T17:15:29.639Z,26.85
2023-05-11T17:17:56.029Z,27.17
2023-05-11T17:20:22.448Z,27.46
2023-05-11T17:22:50.120Z,27.33
2023-05-11T17:25:17.141Z,27.45
2023-05-11T17:27:43.489Z,28.09
2023-05-11T17:30:10.048Z,27.84
2023-05-11T17:32:37.101Z,28.56
2023-05-11T17:35:07.732Z,28.26
2023-05-11T17:37:34.193Z,28.36
2023-05-11T17:40:01.133Z,28.61
2023-05-11T17:42:28.299Z,28.93
2023-05-11T17:44:55.166Z,29.09
2023-05-11T17:47:21.642Z,29.33
2023-05-11T17:49:48.477Z,29.64
2023-05-11T17:52:15.346Z,30.09
2023-05-11T17:54:42.263Z,30.98
2023-05-11T17:57:08.733Z,30.98
2023-05-11T17:59:35.373Z,31.86
2023-05-11T18:02:01.867Z,32.45
2023-05-11T18:04:28.274Z,32.68
2023-05-11T18:06:54.659Z,33.45
2023-05-11T18:09:21.092Z,34.70
2023-05-11T18:11:47.522Z,35.84
2023-05-11T18:14:14.062Z,37.76
2023-05-11T18:16:40.501Z,38.80
2023-05-11T18:19:06.968Z,38.96
2023-05-11T18:21:33.462Z,39.38
2023-05-11T18:24:00.398Z,39.10
2023-05-11T18:26:27.050Z,39.60
2023-05-11T18:28:54.991Z,39.26
2023-05-11T18:31:21.785Z,40.26
2023-05-11T18:33:49.094Z,39.80
2023-05-11T18:36:15.991Z,40.54
2023-05-11T18:38:43.493Z,40.55
2023-05-11T18:41:10.154Z,40.35
2023-05-11T18:43:36.500Z,40.74
2023-05-11T18:46:06.584Z,40.99
2023-05-11T18:48:33.649Z,41.52
2023-05-11T18:51:00.078Z,41.70
2023-05-11T18:53:26.687Z,41.71
2023-05-11T18:55:53.984Z,41.77
2023-05-11T18:58:20.725Z,42.29
2023-05-11T19:00:48.480Z,42.48
2023-05-11T19:03:15.249Z,42.44
2023-05-11T19:05:43.566Z,42.92
2023-05-11T19:08:09.951Z,43.13
2023-05-11T19:10:38.562Z,43.41
2023-05-11T19:13:05.339Z,43.80
2023-05-11T19:15:32.961Z,44.13
2023-05-11T19:17:59.490Z,44.24
2023-05-11T19:20:25.917Z,45.05
2023-05-11T19:22:52.486Z,45.96
2023-05-11T19:25:18.816Z,45.64
2023-05-11T19:27:46.252Z,46.18
2023-05-11T19:30:12.779Z,46.05
2023-05-11T19:32:39.227Z,46.02
2023-05-11T19:35:05.922Z,46.43
2023-05-11T19:37:35.128Z,46.46
2023-05-11T19:40:19.262Z,46.55
2023-05-11T19:42:47.855Z,46.69
2023-05-11T19:45:14.505Z,47.13
2023-05-11T19:47:40.982Z,47.68
2023-05-11T19:50:08.727Z,47.33
2023-05-11T19:52:36.406Z,48.05
2023-05-11T19:55:05.963Z,48.57
2023-05-11T19:57:37.456Z,48.23
2023-05-11T20:00:05.279Z,48.07
2023-05-11T20:02:32.060Z,48.85
2023-05-11T20:04:58.586Z,49.39
2023-05-11T20:07:24.962Z,49.67
2023-05-11T20:09:51.548Z,49.53
2023-05-11T20:12:17.953Z,49.34
2023-05-11T20:14:44.348Z,49.44
2023-05-11T20:17:10.735Z,49.39
2023-05-11T20:19:37.833Z,49.96
2023-05-11T20:22:04.940Z,50.73
2023-05-11T20:24:31.312Z,50.07
2023-05-11T20:26:57.797Z,50.12
2023-05-11T20:29:24.159Z,51.46
2023-05-11T20:31:50.536Z,51.69
2023-05-11T20:34:17.065Z,51.19
2023-05-11T20:36:43.496Z,52.19
2023-05-11T20:39:09.896Z,52.04
2023-05-11T20:41:36.303Z,51.63
2023-05-11T20:44:02.602Z,51.54
2023-05-11T20:46:29.159Z,51.64
2023-05-11T20:48:55.708Z,51.58
2023-05-11T20:51:23.346Z,51.01
2023-05-11T20:53:50.394Z,51.08
2023-05-11T20:56:16.774Z,50.35
2023-05-11T20:58:43.201Z,50.35
2023-05-11T21:01:09.759Z,50.70
2023-05-11T21:03:36.185Z,50.77
2023-05-11T21:06:02.586Z,50.30
2023-05-11T21:08:28.979Z,49.91
2023-05-11T21:10:55.516Z,50.78
2023-05-11T21:13:21.854Z,50.44
2023-05-11T21:15:48.184Z,51.64
2023-05-11T21:18:14.616Z,52.45
2023-05-11T21:20:41.042Z,52.33
2023-05-11T21:23:08.329Z,52.92
2023-05-11T21:25:35.195Z,50.40
2023-05-11T21:28:01.542Z,49.83
2023-05-11T21:30:28.104Z,51.23
2023-05-11T21:32:54.607Z,50.28
2023-05-11T21:35:21.003Z,50.59
2023-05-11T21:37:49.604Z,50.46
2023-05-11T21:40:19.760Z,50.85
2023-05-11T21:42:46.267Z,50.59
2023-05-11T21:45:13.012Z,51.29
2023-05-11T21:47:39.562Z,49.97
2023-05-11T21:50:06.982Z,49.84
2023-05-11T21:52:33.363Z,50.09
2023-05-11T21:54:59.774Z,50.52
2023-05-11T21:57:26.368Z,50.67
2023-05-11T21:59:52.804Z,50.46
2023-05-11T22:02:19.193Z,50.68
2023-05-11T22:04:46.347Z,50.70
2023-05-11T22:07:12.822Z,51.98
2023-05-11T22:09:39.806Z,51.49
2023-05-11T22:12:06.379Z,51.01
2023-05-11T22:14:32.709Z,51.09
2023-05-11T22:16:59.057Z,51.37
2023-05-11T22:19:26.092Z,51.77
2023-05-11T22:21:52.618Z,52.00
2023-05-11T22:24:19.023Z,52.86
2023-05-11T22:26:45.366Z,53.29
2023-05-11T22:29:11.754Z,53.15
2023-05-11T22:31:38.357Z,53.88
2023-05-11T22:34:04.719Z,53.42
2023-05-11T22:36:31.089Z,52.96
2023-05-11T22:38:57.475Z,53.10
2023-05-11T22:41:23.807Z,53.75
2023-05-11T22:43:50.160Z,54.04
2023-05-11T22:46:17.351Z,53.54
2023-05-11T22:48:43.831Z,53.85
2023-05-11T22:51:10.348Z,53.95
2023-05-11T22:53:36.756Z,53.97
2023-05-11T22:56:07.386Z,53.72
2023-05-11T22:58:33.758Z,53.44
2023-05-11T23:01:00.389Z,53.07
2023-05-11T23:03:27.070Z,53.23
2023-05-11T23:05:53.729Z,53.27
2023-05-11T23:08:22.873Z,53.44
2023-05-11T23:10:50.209Z,53.61
2023-05-11T23:13:16.564Z,53.67
2023-05-11T23:15:42.928Z,54.30
2023-05-11T23:18:09.313Z,54.16
2023-05-11T23:20:35.776Z,54.63
2023-05-11T23:23:02.178Z,53.56
2023-05-11T23:25:28.566Z,54.28
2023-05-11T23:27:55.058Z,54.09
2023-05-11T23:30:22.023Z,54.54
2023-05-11T23:32:48.650Z,54.88
2023-05-11T23:35:15.278Z,54.96
2023-05-11T23:37:41.982Z,55.02
2023-05-11T23:40:09.231Z,55.22
2023-05-11T23:42:35.554Z,55.14
2023-05-11T23:45:04.804Z,54.79
2023-05-11T23:47:31.567Z,54.79
2023-05-11T23:49:58.415Z,54.71
2023-05-11T23:52:24.791Z,55.10
2023-05-11T23:54:52.506Z,54.82
2023-05-11T23:57:18.956Z,55.44
2023-05-11T23:59:45.317Z,55.57
